Time;durP1;ratioP1;P1;durP2;ratioP2;P2;SDS_P1;SDS_P2;PMS_P1;PMS_P2;Temp;Humidity;BMP_temperature;BMP_pressure;BME280_temperature;BME280_humidity;BME280_pressure;Samples;Min_cycle;Max_cycle;Signal;HPM_P1;HPM_P2
2023/09/15 00:01:39;;;;;;;6.68;3.95;;;;;;;15.99;75.21;102086.72;5035670;27;101521;-28
2023/09/15 00:04:06;;;;;;;6.55;3.80;;;;;;;15.97;75.06;102094.13;5053909;27;96946;-28
2023/09/15 00:06:35;;;;;;;7.55;3.97;;;;;;;15.89;75.13;102081.84;5036285;27;96524;-28
2023/09/15 00:09:06;;;;;;;6.72;3.42;;;;;;;15.93;75.30;102090.72;5053895;27;99596;-28
2023/09/15 00:11:42;;;;;;;6.28;3.85;;;;;;;15.86;75.89;102078.44;5054061;27;99655;-28
2023/09/15 00:14:12;;;;;;;6.28;4.07;;;;;;;15.87;76.43;102083.81;5054587;27;96526;-28
2023/09/15 00:16:39;;;;;;;6.82;3.75;;;;;;;15.83;76.10;102074.03;5054619;27;96679;-28
2023/09/15 00:19:06;;;;;;;9.38;4.50;;;;;;;15.88;75.35;102084.69;5039005;27;100848;-28
2023/09/15 00:21:32;;;;;;;5.68;3.67;;;;;;;15.81;75.87;102084.19;5057180;27;99211;-30
2023/09/15 00:23:58;;;;;;;7.88;4.65;;;;;;;15.82;75.78;102093.25;5038926;27;96749;-28
2023/09/15 00:26:24;;;;;;;9.77;4.63;;;;;;;15.74;75.89;102080.09;5057850;27;96850;-28
2023/09/15 00:28:50;;;;;;;8.40;4.85;;;;;;;15.69;77.07;102074.88;5057481;27;96718;-28
2023/09/15 00:31:15;;;;;;;8.73;4.75;;;;;;;15.76;76.28;102085.47;5057002;27;98795;-28
2023/09/15 00:33:40;;;;;;;9.05;4.60;;;;;;;15.77;76.47;102089.94;5057564;27;96500;-28
2023/09/15 00:36:06;;;;;;;7.43;4.43;;;;;;;15.69;76.28;102074.03;5057635;27;97026;-28
2023/09/15 00:38:32;;;;;;;10.98;5.43;;;;;;;15.68;75.95;102075.88;5056885;27;99418;-28
2023/09/15 00:40:58;;;;;;;9.13;4.82;;;;;;;15.68;76.94;102078.59;5057438;27;99156;-28
2023/09/15 00:43:23;;;;;;;8.85;5.03;;;;;;;15.68;76.86;102083.16;5057118;27;96885;-28
2023/09/15 00:45:49;;;;;;;9.05;4.82;;;;;;;15.70;77.10;102092.19;5057671;27;96552;-28
2023/09/15 00:48:14;;;;;;;12.55;5.13;;;;;;;15.64;76.60;102070.69;5038097;27;100964;-28
2023/09/15 00:50:42;;;;;;;12.07;5.68;;;;;;;15.67;76.88;102082.28;5038709;27;100933;-28
2023/09/15 00:53:19;;;;;;;7.55;4.93;;;;;;;15.59;77.47;102072.81;5038776;27;96592;-29
2023/09/15 00:55:46;;;;;;;7.82;4.78;;;;;;;15.59;77.18;102070.09;5057269;27;96665;-28
2023/09/15 00:58:12;;;;;;;9.35;5.05;;;;;;;15.55;77.84;102063.97;5038337;27;101275;-29
2023/09/15 01:00:41;;;;;;;9.98;5.43;;;;;;;15.54;77.34;102075.88;5057017;27;97265;-28
2023/09/15 01:03:07;;;;;;;10.68;5.35;;;;;;;15.57;77.74;102072.06;5056836;27;96643;-28
2023/09/15 01:05:33;;;;;;;9.40;4.70;;;;;;;15.53;77.44;102074.09;5057901;27;96792;-28
2023/09/15 01:07:59;;;;;;;9.20;5.03;;;;;;;15.48;78.05;102068.06;5038448;27;101516;-28
2023/09/15 01:10:25;;;;;;;8.02;4.78;;;;;;;15.48;77.79;102065.31;5038305;27;101342;-28
2023/09/15 01:12:53;;;;;;;9.85;6.15;;;;;;;15.46;77.74;102061.81;5056297;27;96700;-28
2023/09/15 01:15:25;;;;;;;11.23;5.65;;;;;;;15.48;77.76;102070.78;5038332;27;96979;-28
2023/09/15 01:18:07;;;;;;;10.25;5.63;;;;;;;15.44;78.32;102066.47;5038191;27;101731;-28
2023/09/15 01:20:53;;;;;;;6.40;4.35;;;;;;;15.44;78.78;102064.63;5038263;27;101228;-29
2023/09/15 01:23:51;;;;;;;9.23;5.45;;;;;;;15.40;78.13;102060.34;5056575;27;96717;-30
2023/09/15 01:26:58;;;;;;;7.47;4.75;;;;;;;15.39;78.51;102064.03;5038590;27;96634;-28
2023/09/15 01:29:53;;;;;;;10.82;4.88;;;;;;;15.32;78.64;102051.75;5036724;27;101453;-28
2023/09/15 01:32:21;;;;;;;10.88;5.35;;;;;;;15.32;78.11;102053.59;5056880;27;97841;-28
2023/09/15 01:34:51;;;;;;;9.38;5.22;;;;;;;15.30;78.44;102050.94;5056500;27;96652;-28
2023/09/15 01:37:18;;;;;;;9.80;5.35;;;;;;;15.32;78.71;102050.88;5038187;27;96757;-28
2023/09/15 01:39:43;;;;;;;10.05;5.50;;;;;;;15.25;78.33;102045.81;5037439;27;101491;-27
2023/09/15 01:42:09;;;;;;;9.88;6.18;;;;;;;15.27;78.53;102046.56;5056000;27;97271;-28
2023/09/15 01:44:35;;;;;;;8.95;5.47;;;;;;;15.19;78.87;102043.44;5055663;27;96563;-28
2023/09/15 01:47:00;;;;;;;10.75;5.82;;;;;;;15.19;79.08;102035.25;5056259;27;96864;-28
2023/09/15 01:49:27;;;;;;;8.43;5.38;;;;;;;15.23;78.64;102044.13;5055977;27;99375;-28
2023/09/15 01:51:53;;;;;;;9.70;5.82;;;;;;;15.17;78.73;102039.94;5037624;27;100998;-29
2023/09/15 01:54:19;;;;;;;10.65;5.63;;;;;;;15.21;79.13;102041.50;5037884;27;96616;-28
2023/09/15 01:56:45;;;;;;;9.57;5.45;;;;;;;15.17;79.31;102041.78;5056399;27;96842;-28
2023/09/15 01:59:10;;;;;;;8.40;5.38;;;;;;;15.13;79.41;102035.63;5056043;27;98144;-28
2023/09/15 02:01:35;;;;;;;9.57;5.47;;;;;;;15.10;79.48;102035.81;5056015;27;97872;-28
2023/09/15 02:04:01;;;;;;;10.93;6.05;;;;;;;15.12;79.11;102036.59;5055581;27;96918;-28
2023/09/15 02:06:26;;;;;;;10.88;5.72;;;;;;;15.12;79.34;102042.06;5055878;27;96808;-28
2023/09/15 02:08:52;;;;;;;11.82;5.50;;;;;;;15.07;79.59;102041.47;5055705;27;99397;-28
2023/09/15 02:11:18;;;;;;;10.95;5.80;;;;;;;15.08;79.22;102030.44;5055998;27;97252;-28
2023/09/15 02:13:43;;;;;;;11.25;6.13;;;;;;;15.06;79.61;102032.41;5037667;27;96875;-27
2023/09/15 02:16:09;;;;;;;9.45;5.30;;;;;;;15.07;79.37;102030.56;5056024;27;96796;-29
2023/09/15 02:18:34;;;;;;;8.80;5.15;;;;;;;15.04;79.31;102034.34;5055482;27;99264;-28
2023/09/15 02:21:00;;;;;;;8.70;5.53;;;;;;;15.03;79.76;102031.72;5055916;27;97806;-28
2023/09/15 02:23:26;;;;;;;14.02;5.40;;;;;;;15.00;79.74;102035.50;5055922;27;96580;-28
2023/09/15 02:25:52;;;;;;;10.25;6.05;;;;;;;15.00;79.75;102035.50;5056021;27;96864;-28
2023/09/15 02:28:19;;;;;;;10.98;6.57;;;;;;;14.91;80.07;102016.09;5054721;27;98124;-29
2023/09/15 02:30:44;;;;;;;10.32;5.72;;;;;;;14.91;80.04;102025.16;5055387;27;97516;-28
2023/09/15 02:33:10;;;;;;;8.98;5.68;;;;;;;14.89;79.84;102026.22;5055355;27;97024;-29
2023/09/15 02:35:35;;;;;;;10.45;6.40;;;;;;;14.88;80.37;102024.47;5055219;27;96872;-28
2023/09/15 02:38:00;;;;;;;9.82;5.63;;;;;;;14.83;79.91;102014.72;5055349;27;98010;-28
2023/09/15 02:40:26;;;;;;;9.15;5.60;;;;;;;14.87;79.99;102023.56;5054059;27;99479;-28
2023/09/15 02:42:52;;;;;;;11.68;5.97;;;;;;;14.80;79.90;102016.72;5036917;27;96872;-28
2023/09/15 02:45:17;;;;;;;10.25;5.68;;;;;;;14.85;80.07;102028.28;5055537;27;96486;-28
2023/09/15 02:47:43;;;;;;;11.38;6.15;;;;;;;14.83;80.27;102027.47;5055302;27;97256;-28
2023/09/15 02:50:09;;;;;;;12.07;5.85;;;;;;;14.79;80.22;102031.34;5055277;27;98092;-27
2023/09/15 02:52:34;;;;;;;10.07;5.97;;;;;;;14.75;80.37;102021.59;5054886;27;96781;-28
2023/09/15 02:55:01;;;;;;;12.02;5.82;;;;;;;14.75;80.15;102022.47;5054874;27;96896;-29
2023/09/15 02:57:26;;;;;;;14.85;7.28;;;;;;;14.76;80.95;102029.69;5036695;27;100955;-28
2023/09/15 02:59:54;;;;;;;11.02;6.40;;;;;;;14.71;80.43;102023.66;5054954;27;99661;-28
2023/09/15 03:02:21;;;;;;;15.07;6.57;;;;;;;14.68;80.48;102014.75;5055404;27;96870;-28
2023/09/15 03:04:46;;;;;;;11.43;6.47;;;;;;;14.72;80.83;102024.50;5036839;27;96978;-28
2023/09/15 03:07:13;;;;;;;11.75;6.93;;;;;;;14.65;80.72;102008.50;5055024;27;97931;-28
2023/09/15 03:09:38;;;;;;;13.27;6.60;;;;;;;14.66;80.53;102009.41;5036937;27;101285;-29
2023/09/15 03:12:04;;;;;;;11.40;6.38;;;;;;;14.64;80.98;102006.75;5055100;27;96830;-29
2023/09/15 03:14:29;;;;;;;10.35;6.32;;;;;;;14.66;80.94;102006.69;5055019;27;96958;-29
2023/09/15 03:16:54;;;;;;;11.35;6.75;;;;;;;14.65;80.44;102010.38;5054254;27;101376;-28
2023/09/15 03:19:21;;;;;;;12.90;6.60;;;;;;;14.57;81.00;102005.38;5054576;27;99138;-28
2023/09/15 03:21:47;;;;;;;9.88;5.78;;;;;;;14.62;81.01;102002.38;5036740;27;96707;-28
2023/09/15 03:24:12;;;;;;;12.90;7.28;;;;;;;14.56;81.55;101998.19;5054581;27;96891;-27
2023/09/15 03:26:39;;;;;;;12.55;6.63;;;;;;;14.56;81.53;102000.91;5054816;27;97434;-29
2023/09/15 03:29:05;;;;;;;11.38;6.18;;;;;;;14.59;81.33;102002.56;5035783;27;101395;-29
2023/09/15 03:31:30;;;;;;;12.73;6.20;;;;;;;14.52;80.82;101998.41;5055110;27;96914;-28
2023/09/15 03:33:56;;;;;;;11.50;6.88;;;;;;;14.52;81.31;101998.41;5054905;27;96823;-28
2023/09/15 03:36:22;;;;;;;12.98;7.25;;;;;;;14.47;81.31;101992.34;5054350;27;99172;-28
2023/09/15 03:38:47;;;;;;;9.32;5.30;;;;;;;14.44;81.59;101993.41;5036032;27;100899;-28
2023/09/15 03:41:13;;;;;;;11.98;6.68;;;;;;;14.47;81.41;101992.34;5054371;27;96641;-28
2023/09/15 03:43:38;;;;;;;10.50;6.30;;;;;;;14.51;81.49;102000.25;5054181;27;96826;-28
2023/09/15 03:46:03;;;;;;;11.77;6.47;;;;;;;14.44;81.84;101983.41;5054222;27;99738;-28
2023/09/15 03:48:29;;;;;;;11.65;7.00;;;;;;;14.42;81.82;101981.75;5054138;27;99693;-28
2023/09/15 03:50:55;;;;;;;10.10;6.47;;;;;;;14.43;81.76;101980.75;5054846;27;96696;-28
2023/09/15 03:53:21;;;;;;;12.63;6.47;;;;;;;14.43;81.54;101981.63;5038596;27;96989;-28
2023/09/15 03:55:48;;;;;;;14.60;6.53;;;;;;;14.39;81.58;101987.34;5038968;27;100780;-28
2023/09/15 03:58:14;;;;;;;11.15;6.63;;;;;;;14.44;82.18;101991.56;5058468;27;97983;-29
2023/09/15 04:00:40;;;;;;;10.18;6.03;;;;;;;14.44;81.67;101987.94;5057161;27;96954;-27
2023/09/15 04:03:05;;;;;;;13.05;6.20;;;;;;;14.42;82.10;101985.34;5057770;27;96679;-28
2023/09/15 04:05:31;;;;;;;14.85;6.63;;;;;;;14.39;82.34;101984.63;5056890;27;99810;-28
2023/09/15 04:07:57;;;;;;;8.88;6.10;;;;;;;14.41;82.11;101974.50;5039119;27;101513;-28
2023/09/15 04:10:22;;;;;;;11.15;6.82;;;;;;;14.40;82.07;101979.09;5039508;27;96700;-28
2023/09/15 04:12:49;;;;;;;12.15;6.50;;;;;;;14.38;82.12;101986.47;5055558;27;97318;-33
2023/09/15 04:15:15;;;;;;;9.77;5.95;;;;;;;14.36;82.20;101982.97;5054783;27;98888;-33
2023/09/15 04:17:41;;;;;;;11.32;6.45;;;;;;;14.34;81.83;101973.13;5036636;27;101156;-33
2023/09/15 04:20:09;;;;;;;12.00;7.15;;;;;;;14.34;82.52;101987.63;5036946;27;96641;-33
2023/09/15 04:22:40;;;;;;;16.30;7.25;;;;;;;14.30;82.87;101980.63;5037021;27;97198;-34
2023/09/15 04:25:06;;;;;;;12.75;5.93;;;;;;;14.28;82.64;101982.53;5055031;27;99001;-32
2023/09/15 04:27:32;;;;;;;10.75;6.70;;;;;;;14.29;83.03;101986.16;5038136;27;101125;-27
2023/09/15 04:29:59;;;;;;;10.88;6.05;;;;;;;14.22;83.09;101983.78;5057346;27;96502;-27
2023/09/15 04:32:24;;;;;;;12.27;6.63;;;;;;;14.22;82.81;101985.63;5039312;27;96859;-27
2023/09/15 04:34:50;;;;;;;10.40;5.50;;;;;;;14.22;83.28;101974.72;5056951;27;98066;-28
2023/09/15 04:37:16;;;;;;;13.70;7.05;;;;;;;14.23;83.42;101976.50;5056999;27;99083;-28
2023/09/15 04:39:42;;;;;;;15.85;6.47;;;;;;;14.19;82.63;101974.91;5039051;27;96584;-28
2023/09/15 04:42:10;;;;;;;10.38;6.55;;;;;;;14.18;82.64;101962.22;5057497;27;96915;-28
2023/09/15 04:44:35;;;;;;;12.07;6.07;;;;;;;14.19;82.68;101974.91;5038048;27;101101;-28
2023/09/15 04:47:01;;;;;;;11.02;6.40;;;;;;;14.19;82.37;101975.78;5057547;27;97216;-28
2023/09/15 04:49:26;;;;;;;18.80;6.60;;;;;;;14.12;82.63;101968.94;5057177;27;96620;-28
2023/09/15 04:51:52;;;;;;;12.52;6.15;;;;;;;14.12;83.28;101970.78;5057281;27;96882;-28
2023/09/15 04:54:17;;;;;;;10.50;5.72;;;;;;;14.14;83.52;101967.00;5056514;27;97867;-28
2023/09/15 04:56:42;;;;;;;12.05;6.25;;;;;;;14.15;82.97;101973.31;5056778;27;99355;-27
2023/09/15 04:59:15;;;;;;;13.65;7.00;;;;;;;14.15;83.03;101982.38;5057351;27;96411;-28
2023/09/15 05:01:42;;;;;;;9.15;5.80;;;;;;;14.11;82.86;101977.19;5057446;27;96506;-27
2023/09/15 05:04:07;;;;;;;10.35;5.78;;;;;;;14.15;83.03;101987.81;5037001;27;100940;-30
2023/09/15 05:06:33;;;;;;;12.13;6.00;;;;;;;14.13;82.90;101983.44;5056532;27;99306;-29
2023/09/15 05:08:58;;;;;;;14.63;6.38;;;;;;;14.11;83.34;101983.53;5057116;27;96613;-28
2023/09/15 05:11:23;;;;;;;9.48;5.72;;;;;;;14.13;83.05;101994.31;5057409;27;96782;-28
2023/09/15 05:13:49;;;;;;;12.85;6.47;;;;;;;14.09;83.33;101987.31;5056780;27;97388;-28
2023/09/15 05:16:16;;;;;;;10.57;5.72;;;;;;;14.12;83.25;101998.03;5056754;27;97263;-28
2023/09/15 05:18:41;;;;;;;7.97;5.43;;;;;;;14.10;82.73;101995.38;5037799;27;96800;-28
2023/09/15 05:21:07;;;;;;;11.48;6.22;;;;;;;14.03;83.27;101989.41;5057072;27;96683;-29
2023/09/15 05:23:32;;;;;;;10.70;5.90;;;;;;;14.06;83.56;102001.09;5056495;27;97472;-28
2023/09/15 05:25:57;;;;;;;9.02;5.60;;;;;;;14.05;83.54;102000.22;5056695;27;97744;-28
2023/09/15 05:28:23;;;;;;;9.20;5.75;;;;;;;14.00;83.04;101997.78;5056429;27;98880;-28
2023/09/15 05:30:48;;;;;;;10.55;6.05;;;;;;;13.97;82.85;101991.63;5056803;27;96797;-28
2023/09/15 05:33:15;;;;;;;8.32;5.22;;;;;;;13.96;83.00;101995.31;5056051;27;99395;-27
2023/09/15 05:35:40;;;;;;;10.55;6.28;;;;;;;13.91;83.99;101992.84;5056392;27;99311;-28
2023/09/15 05:38:06;;;;;;;9.73;5.85;;;;;;;13.91;83.88;101987.41;5057097;27;96594;-28
2023/09/15 05:40:31;;;;;;;9.15;5.70;;;;;;;13.92;83.22;101982.81;5056657;27;96774;-28
2023/09/15 05:42:58;;;;;;;11.27;6.10;;;;;;;13.96;83.33;101993.44;5055807;27;97473;-29
2023/09/15 05:45:24;;;;;;;12.13;5.95;;;;;;;13.95;83.46;101993.56;5055996;27;98043;-28
2023/09/15 05:47:49;;;;;;;9.38;5.35;;;;;;;13.99;83.54;102003.28;5056144;27;96806;-30
2023/09/15 05:50:15;;;;;;;9.93;5.47;;;;;;;13.96;83.51;101992.59;5056580;27;96746;-28
2023/09/15 05:52:41;;;;;;;9.55;5.53;;;;;;;13.99;83.35;102006.91;5056155;27;97922;-27
2023/09/15 05:55:06;;;;;;;8.98;5.20;;;;;;;14.00;83.15;102008.66;5037593;27;101281;-28
2023/09/15 05:57:32;;;;;;;10.35;5.55;;;;;;;13.95;83.32;101997.16;5037844;27;96568;-29
2023/09/15 05:59:57;;;;;;;8.73;5.30;;;;;;;13.97;83.41;101997.09;5056491;27;96779;-28
2023/09/15 06:02:23;;;;;;;10.25;5.47;;;;;;;14.00;83.62;102007.78;5055479;27;99388;-28
2023/09/15 06:04:50;;;;;;;14.77;6.18;;;;;;;14.00;83.23;102008.66;5055466;27;99430;-28
2023/09/15 06:07:17;;;;;;;10.95;5.70;;;;;;;13.97;83.42;101999.81;5037220;27;96577;-28
2023/09/15 06:09:43;;;;;;;8.93;5.93;;;;;;;13.94;83.60;102006.31;5056045;27;96761;-28
2023/09/15 06:12:08;;;;;;;10.77;5.53;;;;;;;13.90;83.80;101999.28;5055774;27;98408;-28
2023/09/15 06:14:35;;;;;;;8.60;5.60;;;;;;;13.99;83.43;102012.38;5055693;27;97776;-28
2023/09/15 06:17:02;;;;;;;10.43;5.85;;;;;;;13.90;83.72;102002.00;5055327;27;97156;-28
2023/09/15 06:19:28;;;;;;;10.30;5.40;;;;;;;13.94;83.67;102008.13;5037717;27;96845;-27
2023/09/15 06:21:53;;;;;;;8.05;5.10;;;;;;;13.93;84.38;102003.66;5055610;27;97538;-28
2023/09/15 06:24:18;;;;;;;9.52;5.22;;;;;;;14.00;84.17;102018.69;5055897;27;97239;-28
2023/09/15 06:26:44;;;;;;;9.73;5.75;;;;;;;14.06;83.54;102017.44;5055860;27;96518;-28
2023/09/15 06:29:09;;;;;;;8.68;5.20;;;;;;;14.10;83.25;102017.19;5055530;27;96808;-27
2023/09/15 06:31:35;;;;;;;13.07;5.20;;;;;;;14.15;83.22;102006.03;5054762;27;97960;-28
2023/09/15 06:34:00;;;;;;;9.38;5.63;;;;;;;14.24;82.81;102017.25;5055451;27;97268;-28
2023/09/15 06:36:26;;;;;;;10.35;5.65;;;;;;;14.31;82.66;102004.16;5055712;27;96653;-28
2023/09/15 06:38:52;;;;;;;10.82;5.07;;;;;;;14.41;82.45;101999.91;5037274;27;96954;-28
2023/09/15 06:41:17;;;;;;;9.02;5.82;;;;;;;14.49;82.23;101995.84;5055399;27;98534;-28
2023/09/15 06:43:43;;;;;;;7.97;5.32;;;;;;;14.60;82.16;101997.00;5054864;27;97862;-28
2023/09/15 06:46:08;;;;;;;8.63;4.90;;;;;;;14.71;81.81;101993.66;5037107;27;96697;-28
2023/09/15 06:48:33;;;;;;;12.25;5.15;;;;;;;14.80;82.01;101997.63;5056343;27;96833;-28
2023/09/15 06:50:59;;;;;;;10.88;5.60;;;;;;;14.91;81.26;101997.88;5055338;27;97874;-28
2023/09/15 06:53:24;;;;;;;9.15;5.68;;;;;;;15.03;80.60;101993.50;5055185;27;97290;-28
2023/09/15 06:55:52;;;;;;;12.40;5.95;;;;;;;15.11;80.86;101995.75;5054847;27;96468;-29
2023/09/15 06:58:18;;;;;;;11.57;5.85;;;;;;;15.14;80.85;101979.22;5055386;27;96713;-28
2023/09/15 07:00:43;;;;;;;8.75;5.38;;;;;;;15.27;80.41;101981.03;5054793;27;97886;-28
2023/09/15 07:03:08;;;;;;;8.18;5.40;;;;;;;15.41;79.97;101969.25;5054665;27;99152;-28
2023/09/15 07:05:34;;;;;;;11.77;4.93;;;;;;;15.60;79.45;101976.28;5055161;27;96483;-28
2023/09/15 07:07:59;;;;;;;10.07;5.35;;;;;;;15.72;78.32;101975.50;5055334;27;96707;-28
2023/09/15 07:10:25;;;;;;;7.68;4.85;;;;;;;15.86;78.42;101985.53;5054890;27;97892;-28
2023/09/15 07:12:50;;;;;;;8.60;4.78;;;;;;;15.98;78.13;101987.44;5055703;27;97293;-28
2023/09/15 07:15:15;;;;;;;7.78;4.88;;;;;;;16.03;77.43;101977.09;5055307;27;96541;-28
2023/09/15 07:17:42;;;;;;;11.25;4.93;;;;;;;16.27;76.99;101987.34;5055081;27;97030;-28
2023/09/15 07:20:07;;;;;;;6.88;4.43;;;;;;;16.50;76.40;101980.34;5054208;27;99442;-28
2023/09/15 07:22:33;;;;;;;12.10;5.32;;;;;;;16.68;75.59;101979.03;5036392;27;102055;-28
2023/09/15 07:24:58;;;;;;;9.50;4.63;;;;;;;16.77;75.15;101983.00;5054975;27;96623;-28
2023/09/15 07:27:23;;;;;;;8.43;5.18;;;;;;;16.88;74.52;101976.84;5056095;27;96789;-28
2023/09/15 07:29:50;;;;;;;9.18;5.03;;;;;;;17.07;74.57;101973.69;5058187;27;97824;-30
2023/09/15 07:32:15;;;;;;;7.32;4.45;;;;;;;17.23;73.86;101963.34;5058123;27;99617;-28
2023/09/15 07:34:41;;;;;;;9.52;5.20;;;;;;;17.42;73.55;101960.16;5058233;27;96596;-28
2023/09/15 07:37:06;;;;;;;7.50;4.78;;;;;;;17.60;72.90;101971.66;5059071;27;96813;-28
2023/09/15 07:39:32;;;;;;;6.97;4.07;;;;;;;17.67;72.26;101956.50;5057900;27;99003;-28
2023/09/15 07:41:57;;;;;;;8.60;4.30;;;;;;;17.75;72.28;101955.94;5057945;27;99202;-28
2023/09/15 07:44:23;;;;;;;11.23;4.53;;;;;;;17.86;72.01;101963.41;5057613;27;96828;-28
2023/09/15 07:46:48;;;;;;;7.82;4.80;;;;;;;17.96;71.20;101965.34;5058134;27;96836;-28
2023/09/15 07:49:14;;;;;;;8.90;4.78;;;;;;;18.12;70.99;101964.19;5058244;27;97941;-28
2023/09/15 07:51:39;;;;;;;8.95;4.00;;;;;;;18.27;70.81;101963.03;5058423;27;97810;-28
2023/09/15 07:54:04;;;;;;;8.85;4.25;;;;;;;18.36;70.43;101962.31;5058372;27;96601;-28
2023/09/15 07:56:30;;;;;;;10.73;4.43;;;;;;;18.53;69.96;101957.41;5058326;27;96715;-28
2023/09/15 07:58:55;;;;;;;8.10;4.38;;;;;;;18.60;69.44;101961.41;5056058;27;99323;-28
2023/09/15 08:01:21;;;;;;;7.80;4.32;;;;;;;18.69;68.42;101960.72;5039116;27;101611;-28
2023/09/15 08:03:46;;;;;;;6.78;4.22;;;;;;;18.67;68.99;101951.72;5056823;27;97332;-28
2023/09/15 08:06:12;;;;;;;6.95;3.78;;;;;;;18.80;69.10;101947.03;5058157;27;96795;-28
2023/09/15 08:08:37;;;;;;;10.95;4.55;;;;;;;18.98;68.81;101947.44;5057031;27;98016;-28
2023/09/15 08:11:03;;;;;;;7.07;4.93;;;;;;;19.02;68.30;101945.31;5057893;27;97870;-28
2023/09/15 08:13:28;;;;;;;6.35;4.32;;;;;;;19.08;68.48;101948.44;5058208;27;96668;-29
2023/09/15 08:15:54;;;;;;;6.90;4.00;;;;;;;19.23;68.19;101943.59;5057821;27;96903;-29
2023/09/15 08:18:20;;;;;;;7.82;4.28;;;;;;;19.20;67.11;101942.97;5039074;27;101008;-28
2023/09/15 08:20:46;;;;;;;9.60;4.88;;;;;;;19.23;67.37;101950.97;5036564;27;101593;-28
2023/09/15 08:23:12;;;;;;;7.45;4.45;;;;;;;19.37;66.85;101947.09;5055571;27;97134;-28
2023/09/15 08:25:38;;;;;;;6.22;3.67;;;;;;;19.45;66.38;101950.97;5037175;27;97158;-32
2023/09/15 08:28:06;;;;;;;6.60;3.63;;;;;;;19.50;66.59;101942.38;5036322;27;101105;-29
2023/09/15 08:30:33;;;;;;;6.25;3.67;;;;;;;19.63;66.47;101944.97;5036624;27;101143;-30
2023/09/15 08:32:58;;;;;;;7.65;3.67;;;;;;;19.76;64.56;101954.00;5036336;27;96979;-29
2023/09/15 08:35:24;;;;;;;7.10;3.58;;;;;;;19.87;65.77;101945.69;5057012;27;97219;-28
2023/09/15 08:37:49;;;;;;;6.78;3.28;;;;;;;19.99;64.97;101951.19;5057236;27;97915;-28
2023/09/15 08:40:15;;;;;;;7.47;3.55;;;;;;;19.86;65.28;101945.84;5057149;27;99381;-28
2023/09/15 08:42:40;;;;;;;8.00;3.88;;;;;;;19.99;64.73;101943.81;5056681;27;96829;-28
2023/09/15 08:45:07;;;;;;;9.35;3.90;;;;;;;20.09;64.32;101942.03;5057059;27;96839;-29
2023/09/15 08:47:37;;;;;;;6.72;3.20;;;;;;;20.28;64.71;101938.56;5056333;27;96815;-28
2023/09/15 08:50:03;;;;;;;8.02;3.33;;;;;;;20.45;64.57;101941.75;5039069;27;100511;-28
2023/09/15 08:52:30;;;;;;;8.13;2.83;;;;;;;20.60;63.40;101954.25;5038779;27;96560;-30
2023/09/15 08:54:56;;;;;;;7.40;3.33;;;;;;;20.61;63.34;101944.09;5038886;27;96819;-27
2023/09/15 08:57:24;;;;;;;5.80;3.03;;;;;;;20.73;63.24;101948.53;5056281;27;97985;-28
2023/09/15 08:59:50;;;;;;;6.53;3.20;;;;;;;20.89;63.15;101934.31;5037311;27;101142;-28
2023/09/15 09:02:16;;;;;;;5.75;3.38;;;;;;;20.93;61.68;101938.56;5036348;27;97245;-28
2023/09/15 09:04:42;;;;;;;6.50;3.28;;;;;;;21.02;62.65;101937.72;5054617;27;96955;-31
2023/09/15 09:07:07;;;;;;;6.13;3.47;;;;;;;21.00;60.19;101931.50;5054199;27;99763;-28
2023/09/15 09:09:34;;;;;;;6.05;2.92;;;;;;;21.02;62.32;101929.44;5054481;27;98021;-27
2023/09/15 09:12:00;;;;;;;7.75;3.78;;;;;;;21.04;62.74;101923.81;5036083;27;96668;-27
2023/09/15 09:14:25;;;;;;;6.20;3.53;;;;;;;21.04;62.11;101921.06;5055305;27;97289;-27
2023/09/15 09:16:52;;;;;;;8.80;3.90;;;;;;;21.18;62.57;101916.03;5056747;27;98274;-27
2023/09/15 09:19:17;;;;;;;5.53;3.08;;;;;;;21.35;62.15;101916.41;5038224;27;101503;-27
2023/09/15 09:21:44;;;;;;;5.57;3.58;;;;;;;21.34;62.01;101910.03;5056270;27;96487;-27
2023/09/15 09:24:10;;;;;;;7.63;3.50;;;;;;;21.54;61.50;101915.66;5056800;27;96810;-27
2023/09/15 09:26:37;;;;;;;8.00;3.88;;;;;;;21.69;60.19;101921.63;5056211;27;98063;-27
2023/09/15 09:29:03;;;;;;;6.38;4.10;;;;;;;21.72;60.65;101925.00;5037823;27;101108;-30
2023/09/15 09:31:29;;;;;;;9.23;4.30;;;;;;;21.76;60.67;101923.72;5038452;27;96636;-27
2023/09/15 09:33:57;;;;;;;8.05;4.07;;;;;;;21.80;58.31;101910.50;5038254;27;96846;-27
2023/09/15 09:36:23;;;;;;;8.52;3.67;;;;;;;21.86;59.28;101918.22;5037854;27;101316;-27
2023/09/15 09:38:50;;;;;;;5.85;3.70;;;;;;;21.88;60.39;101915.28;5038250;27;100606;-28
2023/09/15 09:41:18;;;;;;;7.07;3.90;;;;;;;22.02;60.02;101903.84;5037925;27;96817;-27
2023/09/15 09:43:47;;;;;;;7.82;3.88;;;;;;;22.05;59.80;101915.47;5056030;27;96831;-27
2023/09/15 09:46:20;;;;;;;7.78;3.60;;;;;;;22.08;59.42;101888.63;5056160;27;97522;-27
2023/09/15 09:48:48;;;;;;;7.20;4.15;;;;;;;22.25;58.89;101908.13;5037861;27;100880;-27
2023/09/15 09:51:13;;;;;;;6.22;3.58;;;;;;;22.32;58.70;101902.03;5037469;27;96595;-27
2023/09/15 09:53:39;;;;;;;7.18;3.78;;;;;;;22.47;58.99;101895.88;5056436;27;96617;-27
2023/09/15 09:56:05;;;;;;;7.10;4.00;;;;;;;22.69;59.28;101899.34;5037383;27;102324;-27
2023/09/15 09:58:32;;;;;;;6.80;4.35;;;;;;;22.95;57.62;101902.34;5037672;27;100890;-27
2023/09/15 10:00:58;;;;;;;4.93;3.50;;;;;;;22.91;56.68;101889.88;5037825;27;96756;-27
2023/09/15 10:03:24;;;;;;;7.55;4.63;;;;;;;22.94;56.90;101897.00;5021165;27;96805;-27
2023/09/15 10:05:49;;;;;;;5.80;3.63;;;;;;;22.99;57.43;101897.44;5055985;27;98159;-28
2023/09/15 10:08:15;;;;;;;7.07;4.03;;;;;;;23.08;55.76;101891.88;5055494;27;99121;-27
2023/09/15 10:10:43;;;;;;;8.43;4.35;;;;;;;22.99;57.63;101889.16;5055768;27;96427;-28
2023/09/15 10:13:13;;;;;;;10.32;4.32;;;;;;;23.26;57.37;101888.31;5037718;27;96924;-27
2023/09/15 10:15:40;;;;;;;6.90;3.63;;;;;;;23.43;57.39;101882.00;5037184;27;100850;-27
2023/09/15 10:18:07;;;;;;;7.45;3.65;;;;;;;23.62;55.38;101881.00;5037229;27;99550;-28
2023/09/15 10:20:38;;;;;;;7.82;4.10;;;;;;;23.54;54.38;101878.13;5037643;27;96631;-28
2023/09/15 10:23:04;;;;;;;6.10;3.55;;;;;;;23.73;54.41;101880.81;5037556;27;96784;-27
2023/09/15 10:25:45;;;;;;;5.18;3.58;;;;;;;23.56;53.64;101867.78;5037134;27;100924;-27
2023/09/15 10:28:11;;;;;;;6.37;3.17;;;;;;;23.78;54.26;101880.34;5055836;27;98289;-27
2023/09/15 10:30:38;;;;;;;7.00;3.88;;;;;;;23.83;52.04;101872.44;5056018;27;96685;-27
2023/09/15 10:33:09;;;;;;;8.38;4.10;;;;;;;23.71;53.42;101865.34;5037431;27;96899;-27
2023/09/15 10:35:37;;;;;;;6.47;3.50;;;;;;;23.64;51.84;101867.88;5036523;27;98931;-27
2023/09/15 10:38:05;;;;;;;6.22;4.00;;;;;;;23.67;52.44;101859.28;5036999;27;101546;-27
2023/09/15 10:40:43;;;;;;;6.82;3.47;;;;;;;23.88;52.84;101850.72;5055641;27;96482;-30
2023/09/15 10:43:09;;;;;;;7.55;3.78;;;;;;;23.88;52.18;101847.97;5036981;27;96882;-27
2023/09/15 10:45:34;;;;;;;5.68;3.03;;;;;;;24.05;50.62;101849.00;5036773;27;101547;-27
2023/09/15 10:48:00;;;;;;;7.40;3.67;;;;;;;24.20;51.72;101849.28;5055053;27;97158;-27
2023/09/15 10:50:30;;;;;;;7.60;2.95;;;;;;;24.18;52.09;101851.34;5055275;27;96695;-29
2023/09/15 10:53:08;;;;;;;7.30;3.13;;;;;;;24.29;50.30;101844.69;5055894;27;96794;-27
2023/09/15 10:55:35;;;;;;;5.57;3.40;;;;;;;24.32;51.28;101836.94;5036718;27;98984;-27
2023/09/15 10:58:02;;;;;;;6.85;2.85;;;;;;;24.45;52.17;101836.50;5036604;27;99157;-27
2023/09/15 11:00:30;;;;;;;3.95;2.45;;;;;;;24.53;51.20;101836.63;5054489;27;96694;-28
2023/09/15 11:02:56;;;;;;;5.55;2.88;;;;;;;24.70;51.36;101828.41;5035455;27;96821;-27
2023/09/15 11:05:21;;;;;;;4.82;2.65;;;;;;;24.75;51.05;101824.09;5036545;27;101139;-28
2023/09/15 11:07:48;;;;;;;4.70;2.75;;;;;;;24.71;51.50;101821.81;5036886;27;97253;-27
2023/09/15 11:10:13;;;;;;;5.88;2.83;;;;;;;24.89;49.72;101821.78;5036857;27;96628;-27
2023/09/15 11:12:39;;;;;;;6.40;2.42;;;;;;;24.89;50.81;101819.88;5055445;27;96856;-27
2023/09/15 11:15:05;;;;;;;6.57;2.47;;;;;;;24.89;50.72;101816.22;5054983;27;97348;-27
2023/09/15 11:17:31;;;;;;;4.75;2.22;;;;;;;24.69;51.08;101821.13;5036837;27;102547;-27
2023/09/15 11:19:57;;;;;;;5.10;2.55;;;;;;;24.85;50.44;101814.81;5036666;27;96614;-28